TGW446 WSSS-WBKK
Flight info
| Callsign | TGW446 |
|---|---|
| Flight time | N/A |
| Altitude | 35000 |
| Route | TOMAN5B TOMAN M646 DULIM DULIM2B |
| Aircraft | A21N/M-SDE2FGHIJ3J7RWYZ/LB1D1 |
Departure
| Time | N/A |
|---|---|
| Airport | Singapore Changi Airport (WSSS) |
Arrival
| Time | 2026-04-28 13:16 |
|---|---|
| Airport | Kota Kinabalu International Airport (WBKK) |
| Time | Latitude | Longitude | Altitude | Speed | Heading |
|---|---|---|---|---|---|
| 2026-04-28 12:13 | 3.01412 | 110.05036 | 34854 ft | 442 kts | 70° |
| 2026-04-28 12:14 | 3.03643 | 110.10782 | 34850 ft | 442 kts | 70° |
| 2026-04-28 12:14 | 3.05873 | 110.16537 | 34850 ft | 443 kts | 70° |
| 2026-04-28 12:15 | 3.08104 | 110.22280 | 34850 ft | 443 kts | 70° |
| 2026-04-28 12:15 | 3.10319 | 110.27993 | 34850 ft | 443 kts | 70° |
| 2026-04-28 12:16 | 3.12551 | 110.33738 | 34848 ft | 443 kts | 70° |
| 2026-04-28 12:16 | 3.14777 | 110.39487 | 34850 ft | 443 kts | 70° |
| 2026-04-28 12:17 | 3.17009 | 110.45244 | 34849 ft | 443 kts | 69° |
| 2026-04-28 12:17 | 3.19236 | 110.50990 | 34850 ft | 443 kts | 70° |
| 2026-04-28 12:18 | 3.21435 | 110.56682 | 34849 ft | 444 kts | 70° |
| 2026-04-28 12:18 | 3.23664 | 110.62442 | 34845 ft | 443 kts | 70° |
| 2026-04-28 12:19 | 3.25890 | 110.68204 | 34841 ft | 443 kts | 70° |
| 2026-04-28 12:19 | 3.28120 | 110.73970 | 34842 ft | 444 kts | 70° |
| 2026-04-28 12:20 | 3.30341 | 110.79711 | 34840 ft | 444 kts | 70° |
| 2026-04-28 12:20 | 3.32575 | 110.85487 | 34840 ft | 444 kts | 70° |
| 2026-04-28 12:21 | 3.34790 | 110.91221 | 34839 ft | 444 kts | 70° |
| 2026-04-28 12:21 | 3.37017 | 110.96982 | 34841 ft | 444 kts | 70° |
| 2026-04-28 12:22 | 3.39246 | 111.02756 | 34841 ft | 444 kts | 70° |
| 2026-04-28 12:22 | 3.41474 | 111.08526 | 34842 ft | 444 kts | 70° |
| 2026-04-28 12:23 | 3.43668 | 111.14236 | 34843 ft | 444 kts | 70° |
| 2026-04-28 12:23 | 3.45906 | 111.20014 | 34836 ft | 445 kts | 70° |
| 2026-04-28 12:24 | 3.48145 | 111.25798 | 34839 ft | 445 kts | 70° |
| 2026-04-28 12:24 | 3.50374 | 111.31578 | 34840 ft | 445 kts | 70° |
| 2026-04-28 12:25 | 3.52608 | 111.37372 | 34839 ft | 446 kts | 70° |
| 2026-04-28 12:25 | 3.54848 | 111.43177 | 34842 ft | 446 kts | 70° |
| 2026-04-28 12:26 | 3.57073 | 111.48942 | 34833 ft | 446 kts | 70° |
| 2026-04-28 12:26 | 3.59315 | 111.54747 | 34832 ft | 446 kts | 70° |
| 2026-04-28 12:27 | 3.61539 | 111.60551 | 34820 ft | 445 kts | 71° |
| 2026-04-28 12:27 | 3.63750 | 111.66311 | 34833 ft | 446 kts | 70° |
| 2026-04-28 12:28 | 3.65970 | 111.72075 | 34832 ft | 447 kts | 70° |
| 2026-04-28 12:28 | 3.68212 | 111.77866 | 34831 ft | 446 kts | 71° |
| 2026-04-28 12:29 | 3.71565 | 111.86580 | 34836 ft | 447 kts | 70° |
| 2026-04-28 12:30 | 3.73810 | 111.92384 | 34841 ft | 447 kts | 71° |
| 2026-04-28 12:30 | 3.76043 | 111.98209 | 34842 ft | 447 kts | 71° |
| 2026-04-28 12:31 | 3.78270 | 112.04030 | 34841 ft | 448 kts | 70° |
| 2026-04-28 12:31 | 3.80501 | 112.09826 | 34841 ft | 448 kts | 71° |
| 2026-04-28 12:32 | 3.82747 | 112.15644 | 34845 ft | 448 kts | 70° |
| 2026-04-28 12:32 | 3.84988 | 112.21470 | 34842 ft | 448 kts | 71° |
| 2026-04-28 12:33 | 3.87223 | 112.27300 | 34843 ft | 447 kts | 70° |
| 2026-04-28 12:33 | 3.89450 | 112.33076 | 34838 ft | 448 kts | 71° |
| 2026-04-28 12:34 | 3.91684 | 112.38855 | 34840 ft | 447 kts | 71° |
| 2026-04-28 12:34 | 3.93922 | 112.44681 | 34840 ft | 447 kts | 71° |
| 2026-04-28 12:35 | 3.96162 | 112.50510 | 34839 ft | 447 kts | 71° |
| 2026-04-28 12:35 | 3.98390 | 112.56319 | 34839 ft | 447 kts | 71° |
| 2026-04-28 12:36 | 4.00610 | 112.62100 | 34842 ft | 447 kts | 71° |
| 2026-04-28 12:36 | 4.02845 | 112.67911 | 34840 ft | 447 kts | 71° |
| 2026-04-28 12:37 | 4.05084 | 112.73726 | 34841 ft | 446 kts | 70° |
| 2026-04-28 12:37 | 4.07322 | 112.79530 | 34841 ft | 447 kts | 71° |
| 2026-04-28 12:38 | 4.09545 | 112.85305 | 34842 ft | 446 kts | 71° |
| 2026-04-28 12:38 | 4.11761 | 112.91075 | 34841 ft | 446 kts | 71° |
| 2026-04-28 12:39 | 4.13999 | 112.96880 | 34833 ft | 446 kts | 71° |
| 2026-04-28 12:39 | 4.16231 | 113.02674 | 34826 ft | 445 kts | 71° |
| 2026-04-28 12:40 | 4.18451 | 113.08437 | 34831 ft | 446 kts | 71° |
| 2026-04-28 12:40 | 4.20687 | 113.14249 | 34823 ft | 445 kts | 71° |
| 2026-04-28 12:41 | 4.22907 | 113.20040 | 34833 ft | 445 kts | 71° |
| 2026-04-28 12:41 | 4.25111 | 113.25824 | 34829 ft | 444 kts | 71° |
| 2026-04-28 12:42 | 4.27322 | 113.31572 | 34830 ft | 444 kts | 71° |
| 2026-04-28 12:42 | 4.29553 | 113.37346 | 34829 ft | 444 kts | 71° |
| 2026-04-28 12:43 | 4.31780 | 113.43128 | 34824 ft | 444 kts | 71° |
| 2026-04-28 12:43 | 4.34001 | 113.48885 | 34819 ft | 443 kts | 71° |
| 2026-04-28 12:44 | 4.36195 | 113.54624 | 34814 ft | 443 kts | 71° |
| 2026-04-28 12:44 | 4.38420 | 113.60394 | 34818 ft | 443 kts | 71° |
| 2026-04-28 12:45 | 4.40626 | 113.66154 | 34817 ft | 442 kts | 71° |
| 2026-04-28 12:45 | 4.42833 | 113.71873 | 34822 ft | 442 kts | 71° |
| 2026-04-28 12:46 | 4.45065 | 113.77620 | 34813 ft | 442 kts | 71° |
| 2026-04-28 12:46 | 4.47297 | 113.83377 | 34826 ft | 442 kts | 71° |
| 2026-04-28 12:47 | 4.49157 | 113.88155 | 34813 ft | 443 kts | 71° |
| 2026-04-28 12:47 | 4.51363 | 113.93869 | 34819 ft | 441 kts | 71° |
| 2026-04-28 12:48 | 4.53581 | 113.99611 | 34817 ft | 442 kts | 71° |
| 2026-04-28 12:48 | 4.55795 | 114.05343 | 34819 ft | 442 kts | 71° |
| 2026-04-28 12:49 | 4.58019 | 114.11095 | 34821 ft | 442 kts | 71° |
| 2026-04-28 12:49 | 4.60205 | 114.16824 | 34827 ft | 443 kts | 71° |
| 2026-04-28 12:50 | 4.62403 | 114.22588 | 34818 ft | 442 kts | 71° |
| 2026-04-28 12:50 | 4.64593 | 114.28350 | 34818 ft | 442 kts | 71° |
| 2026-04-28 12:51 | 4.66788 | 114.34118 | 34831 ft | 443 kts | 71° |
| 2026-04-28 12:51 | 4.68965 | 114.39907 | 34830 ft | 443 kts | 71° |
| 2026-04-28 12:52 | 4.71151 | 114.45709 | 34831 ft | 444 kts | 71° |
| 2026-04-28 12:52 | 4.73340 | 114.51445 | 34836 ft | 443 kts | 71° |
| 2026-04-28 12:53 | 4.75551 | 114.57236 | 34841 ft | 444 kts | 71° |
| 2026-04-28 12:53 | 4.77746 | 114.62985 | 34462 ft | 442 kts | 70° |
| 2026-04-28 12:53 | 4.78847 | 114.65872 | 34166 ft | 443 kts | 71° |
| 2026-04-28 12:54 | 4.79949 | 114.68763 | 33833 ft | 443 kts | 71° |
| 2026-04-28 12:54 | 4.81047 | 114.71655 | 33212 ft | 441 kts | 71° |
| 2026-04-28 12:54 | 4.82119 | 114.74492 | 32521 ft | 441 kts | 71° |
| 2026-04-28 12:54 | 4.83204 | 114.77368 | 31789 ft | 442 kts | 71° |
| 2026-04-28 12:55 | 4.84300 | 114.80256 | 31088 ft | 441 kts | 71° |
| 2026-04-28 12:55 | 4.85390 | 114.83117 | 30424 ft | 438 kts | 71° |
| 2026-04-28 12:55 | 4.86476 | 114.85971 | 29799 ft | 435 kts | 70° |
| 2026-04-28 12:55 | 4.87801 | 114.88697 | 29141 ft | 435 kts | 60° |
| 2026-04-28 12:56 | 4.89613 | 114.91078 | 28502 ft | 434 kts | 51° |
| 2026-04-28 12:56 | 4.91615 | 114.93334 | 27855 ft | 432 kts | 50° |
| 2026-04-28 12:56 | 4.93628 | 114.95568 | 27212 ft | 429 kts | 50° |
| 2026-04-28 12:56 | 4.95615 | 114.97786 | 26551 ft | 425 kts | 50° |
| 2026-04-28 12:57 | 4.97563 | 114.99986 | 26043 ft | 416 kts | 50° |
| 2026-04-28 12:57 | 4.98819 | 115.01408 | 25914 ft | 411 kts | 50° |
| 2026-04-28 12:57 | 4.99082 | 115.01708 | 25883 ft | 410 kts | 50° |
| 2026-04-28 12:57 | 5.00972 | 115.03852 | 25251 ft | 408 kts | 50° |
| 2026-04-28 12:58 | 5.02846 | 115.05969 | 24277 ft | 412 kts | 50° |
| 2026-04-28 12:58 | 5.04716 | 115.08076 | 23514 ft | 410 kts | 50° |
| 2026-04-28 12:58 | 5.06608 | 115.10208 | 22862 ft | 405 kts | 50° |
| 2026-04-28 12:58 | 5.08464 | 115.12315 | 22264 ft | 399 kts | 50° |
| 2026-04-28 12:59 | 5.10288 | 115.14382 | 21654 ft | 394 kts | 50° |
| 2026-04-28 12:59 | 5.12103 | 115.16433 | 21052 ft | 388 kts | 50° |
| 2026-04-28 12:59 | 5.13877 | 115.18434 | 20471 ft | 383 kts | 49° |
| 2026-04-28 12:59 | 5.15639 | 115.20421 | 19901 ft | 377 kts | 49° |
| 2026-04-28 13:00 | 5.17343 | 115.22354 | 19366 ft | 371 kts | 50° |
| 2026-04-28 13:00 | 5.19029 | 115.24282 | 18864 ft | 365 kts | 50° |
| 2026-04-28 13:00 | 5.20708 | 115.26188 | 18375 ft | 362 kts | 50° |
| 2026-04-28 13:00 | 5.22372 | 115.28065 | 17906 ft | 359 kts | 49° |
| 2026-04-28 13:01 | 5.24028 | 115.29939 | 17441 ft | 357 kts | 49° |
| 2026-04-28 13:01 | 5.25677 | 115.31796 | 16950 ft | 355 kts | 50° |
| 2026-04-28 13:01 | 5.27308 | 115.33652 | 16457 ft | 350 kts | 51° |
| 2026-04-28 13:01 | 5.28900 | 115.35465 | 15996 ft | 351 kts | 50° |
| 2026-04-28 13:02 | 5.30520 | 115.37300 | 15535 ft | 350 kts | 50° |
| 2026-04-28 13:02 | 5.32138 | 115.39128 | 15089 ft | 349 kts | 49° |
| 2026-04-28 13:02 | 5.33753 | 115.40954 | 14618 ft | 349 kts | 49° |
| 2026-04-28 13:02 | 5.35365 | 115.42772 | 14131 ft | 349 kts | 49° |
| 2026-04-28 13:03 | 5.36982 | 115.44597 | 13654 ft | 348 kts | 49° |
| 2026-04-28 13:03 | 5.38564 | 115.46382 | 13187 ft | 349 kts | 49° |
| 2026-04-28 13:03 | 5.40175 | 115.48203 | 12715 ft | 349 kts | 49° |
| 2026-04-28 13:03 | 5.41777 | 115.50020 | 12326 ft | 342 kts | 49° |
| 2026-04-28 13:04 | 5.43342 | 115.51795 | 11922 ft | 338 kts | 50° |
| 2026-04-28 13:04 | 5.44839 | 115.53615 | 11463 ft | 337 kts | 57° |
| 2026-04-28 13:04 | 5.45890 | 115.55671 | 11017 ft | 335 kts | 67° |
| 2026-04-28 13:04 | 5.46790 | 115.57816 | 10653 ft | 327 kts | 68° |
| 2026-04-28 13:05 | 5.47641 | 115.59871 | 10430 ft | 313 kts | 69° |
| 2026-04-28 13:05 | 5.48470 | 115.61846 | 10237 ft | 300 kts | 68° |
| 2026-04-28 13:05 | 5.49266 | 115.63749 | 9913 ft | 292 kts | 68° |
| 2026-04-28 13:05 | 5.50055 | 115.65621 | 9487 ft | 289 kts | 68° |
| 2026-04-28 13:06 | 5.50843 | 115.67484 | 9061 ft | 291 kts | 68° |
| 2026-04-28 13:06 | 5.51633 | 115.69355 | 8659 ft | 291 kts | 68° |
| 2026-04-28 13:06 | 5.52432 | 115.71223 | 8288 ft | 291 kts | 68° |
| 2026-04-28 13:06 | 5.53228 | 115.73087 | 7931 ft | 289 kts | 68° |
| 2026-04-28 13:07 | 5.54003 | 115.74910 | 7620 ft | 283 kts | 68° |
| 2026-04-28 13:07 | 5.54856 | 115.76651 | 7423 ft | 273 kts | 60° |
| 2026-04-28 13:07 | 5.55834 | 115.78233 | 7237 ft | 262 kts | 59° |
| 2026-04-28 13:07 | 5.56826 | 115.79778 | 6910 ft | 259 kts | 59° |
| 2026-04-28 13:08 | 5.57767 | 115.81283 | 6544 ft | 256 kts | 59° |
| 2026-04-28 13:08 | 5.58704 | 115.82787 | 6150 ft | 255 kts | 59° |
| 2026-04-28 13:08 | 5.59642 | 115.84294 | 5751 ft | 253 kts | 59° |
| 2026-04-28 13:08 | 5.60577 | 115.85788 | 5339 ft | 250 kts | 59° |
| 2026-04-28 13:09 | 5.61494 | 115.87255 | 4992 ft | 245 kts | 58° |
| 2026-04-28 13:09 | 5.62390 | 115.88690 | 4682 ft | 238 kts | 59° |
| 2026-04-28 13:09 | 5.63263 | 115.90097 | 4430 ft | 236 kts | 59° |
| 2026-04-28 13:09 | 5.64131 | 115.91473 | 4172 ft | 236 kts | 58° |
| 2026-04-28 13:10 | 5.65082 | 115.92816 | 4135 ft | 237 kts | 45° |
| 2026-04-28 13:10 | 5.66439 | 115.93756 | 4159 ft | 238 kts | 27° |
| 2026-04-28 13:10 | 5.68006 | 115.94298 | 4184 ft | 239 kts | 15° |
| 2026-04-28 13:10 | 5.69565 | 115.94887 | 4206 ft | 238 kts | 25° |
| 2026-04-28 13:11 | 5.71082 | 115.95522 | 4191 ft | 239 kts | 24° |
| 2026-04-28 13:11 | 5.72611 | 115.96169 | 4002 ft | 237 kts | 24° |
| 2026-04-28 13:11 | 5.74102 | 115.96802 | 3739 ft | 230 kts | 24° |
| 2026-04-28 13:11 | 5.75542 | 115.97413 | 3499 ft | 217 kts | 24° |
| 2026-04-28 13:12 | 5.76916 | 115.97995 | 3267 ft | 211 kts | 24° |
| 2026-04-28 13:12 | 5.78232 | 115.98553 | 2976 ft | 205 kts | 24° |
| 2026-04-28 13:12 | 5.79509 | 115.99095 | 2716 ft | 192 kts | 24° |
| 2026-04-28 13:12 | 5.80728 | 115.99611 | 2430 ft | 187 kts | 24° |
| 2026-04-28 13:13 | 5.81915 | 116.00115 | 2153 ft | 183 kts | 24° |
| 2026-04-28 13:13 | 5.83048 | 116.00595 | 1906 ft | 169 kts | 24° |
| 2026-04-28 13:13 | 5.84043 | 116.01018 | 1668 ft | 140 kts | 24° |
| 2026-04-28 13:13 | 5.84922 | 116.01390 | 1472 ft | 136 kts | 24° |
| 2026-04-28 13:14 | 5.85788 | 116.01758 | 1310 ft | 135 kts | 24° |
| 2026-04-28 13:14 | 5.86643 | 116.02120 | 1140 ft | 135 kts | 25° |
| 2026-04-28 13:14 | 5.87508 | 116.02488 | 962 ft | 135 kts | 24° |
| 2026-04-28 13:14 | 5.88368 | 116.02852 | 784 ft | 134 kts | 24° |
| 2026-04-28 13:15 | 5.89226 | 116.03213 | 573 ft | 134 kts | 24° |
| 2026-04-28 13:15 | 5.90078 | 116.03585 | 409 ft | 133 kts | 25° |
| 2026-04-28 13:15 | 5.90935 | 116.03940 | 225 ft | 133 kts | 24° |
| 2026-04-28 13:15 | 5.91786 | 116.04300 | 60 ft | 133 kts | 23° |
| 2026-04-28 13:16 | 5.92623 | 116.04651 | 34 ft | 118 kts | 23° |
| 2026-04-28 13:16 | 5.93210 | 116.04899 | 34 ft | 66 kts | 22° |
| 2026-04-28 13:16 | 5.93511 | 116.05027 | 34 ft | 31 kts | 23° |
| 2026-04-28 13:16 | 5.93683 | 116.05099 | 34 ft | 27 kts | 23° |
| 2026-04-28 13:17 | 5.93848 | 116.05177 | 34 ft | 21 kts | 31° |
| 2026-04-28 13:17 | 5.93973 | 116.05267 | 34 ft | 23 kts | 51° |
| 2026-04-28 13:17 | 5.94042 | 116.05354 | 34 ft | 11 kts | 52° |
| 2026-04-28 13:17 | 5.94080 | 116.05413 | 34 ft | 9 kts | 91° |
| 2026-04-28 13:18 | 5.94022 | 116.05430 | 34 ft | 12 kts | 193° |
| 2026-04-28 13:18 | 5.93970 | 116.05408 | 34 ft | 9 kts | 203° |
| 2026-04-28 13:18 | 5.93903 | 116.05380 | 34 ft | 12 kts | 202° |
| 2026-04-28 13:18 | 5.93822 | 116.05346 | 34 ft | 14 kts | 202° |
| 2026-04-28 13:19 | 5.93726 | 116.05306 | 34 ft | 16 kts | 202° |
| 2026-04-28 13:19 | 5.93616 | 116.05260 | 34 ft | 18 kts | 202° |
| 2026-04-28 13:19 | 5.93495 | 116.05208 | 34 ft | 18 kts | 203° |
| 2026-04-28 13:19 | 5.93373 | 116.05157 | 34 ft | 20 kts | 203° |
| 2026-04-28 13:20 | 5.93239 | 116.05100 | 34 ft | 22 kts | 202° |
| 2026-04-28 13:20 | 5.93106 | 116.05044 | 34 ft | 22 kts | 203° |
| 2026-04-28 13:20 | 5.92968 | 116.04985 | 34 ft | 22 kts | 203° |
| 2026-04-28 13:20 | 5.92830 | 116.04927 | 34 ft | 17 kts | 203° |
| 2026-04-28 13:21 | 5.92736 | 116.04886 | 34 ft | 7 kts | 203° |
| 2026-04-28 13:21 | 5.92682 | 116.04880 | 34 ft | 9 kts | 149° |
| 2026-04-28 13:21 | 5.92657 | 116.04921 | 34 ft | 4 kts | 112° |
| 2026-04-28 13:21 | 5.92642 | 116.04954 | 34 ft | 6 kts | 129° |
| 2026-04-28 13:22 | 5.92629 | 116.04960 | 34 ft | 6 kts | 160° |
| 2026-04-28 13:22 | 5.92576 | 116.04948 | 34 ft | 4 kts | 203° |
| 2026-04-28 13:22 | 5.92548 | 116.04936 | 34 ft | 6 kts | 204° |
| 2026-04-28 13:22 | 5.92506 | 116.04917 | 34 ft | 7 kts | 204° |
| 2026-04-28 13:23 | 5.92458 | 116.04897 | 34 ft | 7 kts | 201° |
| 2026-04-28 13:23 | 5.92424 | 116.04908 | 34 ft | 7 kts | 102° |
| 2026-04-28 13:23 | 5.92424 | 116.04917 | 34 ft | 2 kts | 85° |
| 2026-04-28 13:23 | 5.92425 | 116.04933 | 34 ft | 3 kts | 86° |
| 2026-04-28 13:24 | 5.92426 | 116.04943 | 34 ft | 1 kts | 83° |
| 2026-04-28 13:24 | 5.92426 | 116.04950 | 34 ft | 0 kts | 84° |